createdAt,value
2019-03-19T00:00:38.342Z,0.83
2019-03-19T00:03:05.036Z,1.10
2019-03-19T00:05:31.627Z,1.37
2019-03-19T00:07:58.298Z,1.03
2019-03-19T00:10:25.129Z,1.53
2019-03-19T00:12:51.822Z,0.90
2019-03-19T00:15:18.472Z,1.40
2019-03-19T00:17:45.108Z,0.97
2019-03-19T00:20:11.868Z,1.40
2019-03-19T00:22:38.606Z,1.10
2019-03-19T00:25:05.390Z,1.13
2019-03-19T00:27:32.413Z,1.13
2019-03-19T00:29:58.983Z,1.13
2019-03-19T00:32:25.615Z,1.13
2019-03-19T00:34:52.433Z,1.10
2019-03-19T00:37:19.077Z,1.27
2019-03-19T00:39:45.841Z,1.10
2019-03-19T00:42:12.493Z,1.50
2019-03-19T00:44:39.175Z,1.10
2019-03-19T00:47:05.719Z,1.20
2019-03-19T00:49:32.459Z,1.23
2019-03-19T00:51:59.003Z,1.60
2019-03-19T00:54:25.631Z,1.17
2019-03-19T00:56:52.306Z,1.50
2019-03-19T00:59:18.834Z,2.00
2019-03-19T01:01:45.661Z,2.00
2019-03-19T01:04:12.298Z,1.53
2019-03-19T01:06:38.983Z,1.43
2019-03-19T01:09:05.948Z,1.53
2019-03-19T01:11:32.662Z,1.47
2019-03-19T01:13:59.296Z,1.77
2019-03-19T01:16:25.862Z,2.23
2019-03-19T01:18:52.402Z,1.30
2019-03-19T01:21:19.049Z,1.17
2019-03-19T01:23:45.761Z,1.40
2019-03-19T01:26:12.315Z,1.57
2019-03-19T01:28:39.016Z,1.57
2019-03-19T01:31:05.883Z,1.53
2019-03-19T01:33:32.566Z,1.80
2019-03-19T01:35:59.204Z,1.27
2019-03-19T01:38:26.016Z,2.27
2019-03-19T01:40:52.566Z,2.40
2019-03-19T01:43:19.113Z,1.80
2019-03-19T01:45:45.995Z,1.67
2019-03-19T01:48:12.715Z,1.60
2019-03-19T01:50:39.364Z,1.67
2019-03-19T01:53:06.002Z,1.80
2019-03-19T01:55:32.678Z,1.80
2019-03-19T01:57:59.219Z,1.73
2019-03-19T02:00:25.860Z,1.70
2019-03-19T02:02:52.466Z,1.67
2019-03-19T02:05:19.108Z,1.30
2019-03-19T02:07:45.645Z,1.50
2019-03-19T02:10:12.591Z,1.53
2019-03-19T02:12:39.575Z,1.60
2019-03-19T02:15:07.674Z,1.30
2019-03-19T02:17:34.305Z,1.50
2019-03-19T02:20:00.917Z,1.37
2019-03-19T02:22:27.576Z,1.47
2019-03-19T02:24:54.253Z,1.77
2019-03-19T02:27:20.803Z,1.17
2019-03-19T02:29:47.357Z,1.90
2019-03-19T02:32:13.917Z,1.60
2019-03-19T02:34:40.664Z,1.87
2019-03-19T02:37:07.391Z,2.03
2019-03-19T02:39:33.949Z,2.10
2019-03-19T02:42:00.851Z,2.27
2019-03-19T02:44:27.517Z,2.33
2019-03-19T02:46:54.224Z,2.50
2019-03-19T02:49:21.019Z,2.33
2019-03-19T02:51:47.553Z,2.30
2019-03-19T02:54:14.255Z,2.87
2019-03-19T02:56:40.886Z,2.63
2019-03-19T02:59:07.486Z,2.30
2019-03-19T03:01:34.046Z,3.10
2019-03-19T03:04:00.702Z,2.47
2019-03-19T03:06:27.234Z,2.53
2019-03-19T03:08:53.904Z,2.50
2019-03-19T03:11:20.531Z,2.33
2019-03-19T03:13:47.153Z,2.60
2019-03-19T03:16:13.689Z,2.50
2019-03-19T03:18:40.393Z,2.80
2019-03-19T03:21:07.018Z,2.73
2019-03-19T03:23:33.712Z,2.33
2019-03-19T03:26:00.313Z,3.07
2019-03-19T03:28:26.878Z,2.83
2019-03-19T03:30:53.768Z,2.40
2019-03-19T03:33:21.522Z,3.53
2019-03-19T03:35:48.164Z,3.60
2019-03-19T03:38:14.924Z,2.47
2019-03-19T03:40:41.606Z,3.30
2019-03-19T03:43:08.381Z,2.93
2019-03-19T03:45:35.103Z,2.40
2019-03-19T03:48:01.643Z,2.87
2019-03-19T03:50:28.177Z,2.97
2019-03-19T03:52:54.890Z,2.43
2019-03-19T03:55:21.634Z,2.97
2019-03-19T03:57:48.358Z,2.83
2019-03-19T04:00:15.199Z,2.47
2019-03-19T04:02:44.575Z,2.57
2019-03-19T04:05:10.473Z,2.83
2019-03-19T04:07:37.167Z,2.67
2019-03-19T04:10:04.241Z,3.40
2019-03-19T04:12:30.788Z,3.37
2019-03-19T04:14:57.457Z,3.70
2019-03-19T04:17:23.971Z,3.90
2019-03-19T04:19:50.645Z,3.37
2019-03-19T04:22:17.360Z,2.90
2019-03-19T04:24:44.133Z,2.47
2019-03-19T04:27:16.454Z,2.87
2019-03-19T04:29:39.377Z,3.30
2019-03-19T04:32:06.075Z,2.97
2019-03-19T04:34:33.620Z,3.73
2019-03-19T04:37:00.308Z,3.03
2019-03-19T04:39:26.979Z,3.60
2019-03-19T04:41:53.529Z,3.00
2019-03-19T04:44:20.081Z,3.27
2019-03-19T04:46:46.703Z,3.10
2019-03-19T04:49:13.396Z,2.90
2019-03-19T04:51:39.979Z,2.87
2019-03-19T04:54:06.658Z,3.07
2019-03-19T04:56:33.341Z,3.93
2019-03-19T04:59:00.103Z,3.67
2019-03-19T05:01:26.864Z,3.30
2019-03-19T05:03:54.596Z,3.50
2019-03-19T05:06:21.350Z,3.47
2019-03-19T05:08:48.238Z,2.70
2019-03-19T05:11:15.024Z,2.80
2019-03-19T05:13:43.739Z,2.90
2019-03-19T05:16:10.671Z,3.17
2019-03-19T05:18:38.346Z,2.50
2019-03-19T05:21:04.964Z,2.90
2019-03-19T05:23:31.662Z,2.90
2019-03-19T05:25:58.433Z,2.60
2019-03-19T05:28:25.100Z,3.60
2019-03-19T05:30:51.772Z,3.27
2019-03-19T05:33:19.552Z,3.23
2019-03-19T05:35:46.458Z,3.63
2019-03-19T05:38:13.000Z,3.50
2019-03-19T05:40:39.653Z,3.80
2019-03-19T05:43:06.444Z,3.63
2019-03-19T05:45:33.271Z,3.77
2019-03-19T05:48:00.070Z,3.40
2019-03-19T05:50:26.632Z,3.53
2019-03-19T05:52:53.615Z,3.73
2019-03-19T05:55:20.282Z,3.50
2019-03-19T05:57:49.934Z,3.77
2019-03-19T06:00:16.202Z,2.60
2019-03-19T06:02:43.027Z,3.20
2019-03-19T06:05:09.883Z,3.40
2019-03-19T06:07:36.601Z,3.13
2019-03-19T06:10:03.721Z,3.03
2019-03-19T06:12:30.602Z,3.07
2019-03-19T06:14:57.421Z,3.63
2019-03-19T06:17:24.334Z,3.27
2019-03-19T06:19:50.860Z,3.67
2019-03-19T06:22:17.388Z,3.13
2019-03-19T06:24:43.941Z,3.10
2019-03-19T06:27:10.645Z,3.00
2019-03-19T06:29:37.210Z,3.87
2019-03-19T06:32:03.827Z,3.93
2019-03-19T06:34:30.559Z,4.17
2019-03-19T06:36:57.091Z,4.20
2019-03-19T06:39:23.808Z,3.70
2019-03-19T06:41:50.335Z,3.43
2019-03-19T06:44:17.029Z,3.57
2019-03-19T06:46:43.698Z,3.60
2019-03-19T06:49:10.268Z,3.63
2019-03-19T06:51:36.959Z,3.60
2019-03-19T06:54:03.685Z,3.77
2019-03-19T06:56:30.283Z,3.87
2019-03-19T06:58:57.333Z,3.93
2019-03-19T07:01:24.192Z,4.57
2019-03-19T07:03:50.832Z,4.30
2019-03-19T07:06:17.816Z,4.10
2019-03-19T07:08:44.488Z,4.03
2019-03-19T07:11:11.127Z,3.53
2019-03-19T07:13:38.700Z,4.30
2019-03-19T07:16:05.235Z,3.43
2019-03-19T07:18:33.842Z,4.23
2019-03-19T07:21:00.680Z,3.80
2019-03-19T07:23:27.202Z,4.57
2019-03-19T07:25:53.775Z,4.70
2019-03-19T07:28:22.271Z,4.13
2019-03-19T07:30:49.128Z,4.63
2019-03-19T07:33:15.698Z,4.47
2019-03-19T07:35:42.331Z,4.17
2019-03-19T07:38:09.095Z,4.27
2019-03-19T07:40:35.863Z,4.30
2019-03-19T07:43:02.664Z,4.67
2019-03-19T07:45:29.494Z,4.27
2019-03-19T07:47:56.182Z,5.03
2019-03-19T07:50:22.835Z,4.60
2019-03-19T07:52:49.365Z,4.23
2019-03-19T07:55:16.352Z,4.13
2019-03-19T07:57:43.281Z,3.90
2019-03-19T08:00:11.765Z,4.00
2019-03-19T08:02:38.633Z,3.87
2019-03-19T08:05:06.372Z,3.13
2019-03-19T08:07:33.039Z,3.83
2019-03-19T08:09:59.682Z,3.30
2019-03-19T08:12:26.551Z,3.40
2019-03-19T08:14:53.141Z,3.40
2019-03-19T08:17:19.959Z,2.90
2019-03-19T08:19:46.511Z,3.23
2019-03-19T08:22:13.120Z,2.33
2019-03-19T08:24:39.707Z,3.10
2019-03-19T08:27:06.607Z,2.53
2019-03-19T08:29:34.752Z,2.90
2019-03-19T08:32:01.649Z,2.93
2019-03-19T08:34:28.180Z,2.70
2019-03-19T08:36:54.767Z,2.13
2019-03-19T08:39:21.306Z,2.70
2019-03-19T08:41:48.053Z,2.63
2019-03-19T08:44:14.699Z,2.33
2019-03-19T08:46:42.907Z,2.70
2019-03-19T08:49:09.808Z,2.60
2019-03-19T08:51:36.407Z,2.70
2019-03-19T08:54:03.214Z,3.13
2019-03-19T08:56:29.910Z,2.90
2019-03-19T08:59:05.575Z,2.33
2019-03-19T09:01:25.400Z,2.20
2019-03-19T09:03:52.089Z,2.20
2019-03-19T09:06:18.735Z,2.20
2019-03-19T09:08:45.367Z,2.67
2019-03-19T09:11:12.058Z,2.37
2019-03-19T09:13:38.680Z,2.30
2019-03-19T09:16:05.450Z,1.90
2019-03-19T09:18:32.275Z,1.90
2019-03-19T09:20:59.893Z,1.90
2019-03-19T09:23:26.580Z,2.13
2019-03-19T09:25:53.445Z,2.40
2019-03-19T09:28:20.094Z,2.07
2019-03-19T09:30:47.010Z,2.20
2019-03-19T09:33:13.572Z,1.83
2019-03-19T09:35:40.217Z,2.10
2019-03-19T09:38:07.185Z,1.83
2019-03-19T09:40:33.824Z,2.00
2019-03-19T09:43:00.582Z,2.13
2019-03-19T09:45:27.261Z,2.10
2019-03-19T09:47:53.905Z,2.50
2019-03-19T09:50:20.827Z,2.03
2019-03-19T09:52:47.732Z,2.17
2019-03-19T09:55:14.401Z,2.20
2019-03-19T09:57:41.302Z,2.57
2019-03-19T10:00:11.025Z,2.60
2019-03-19T10:02:37.646Z,2.03
2019-03-19T10:05:04.526Z,2.40
2019-03-19T10:07:31.051Z,2.17
2019-03-19T10:09:57.643Z,1.93
2019-03-19T10:12:24.296Z,1.90
2019-03-19T10:14:51.032Z,2.30
2019-03-19T10:17:17.754Z,2.07
2019-03-19T10:19:44.342Z,2.27
2019-03-19T10:22:11.514Z,2.03
2019-03-19T10:24:38.166Z,2.33
2019-03-19T10:27:04.749Z,2.53
2019-03-19T10:29:38.285Z,2.50
2019-03-19T10:31:59.930Z,1.93
2019-03-19T10:34:26.549Z,2.50
2019-03-19T10:36:53.254Z,2.17
2019-03-19T10:39:19.930Z,2.40
2019-03-19T10:41:46.651Z,1.90
2019-03-19T10:44:13.253Z,1.83
2019-03-19T10:46:40.013Z,2.40
2019-03-19T10:49:06.767Z,1.50
2019-03-19T10:51:35.182Z,1.77
2019-03-19T10:54:02.128Z,1.97
2019-03-19T10:56:29.421Z,1.77
2019-03-19T10:58:56.187Z,1.43
2019-03-19T11:01:22.920Z,2.27
2019-03-19T11:03:49.680Z,1.20
2019-03-19T11:06:16.336Z,1.33
2019-03-19T11:08:42.988Z,2.63
2019-03-19T11:11:09.873Z,1.57
2019-03-19T11:13:36.434Z,1.70
2019-03-19T11:16:03.546Z,1.63
2019-03-19T11:18:30.337Z,1.30
2019-03-19T11:20:56.991Z,1.80
2019-03-19T11:23:23.850Z,1.10
2019-03-19T11:25:54.731Z,1.10
2019-03-19T11:28:20.086Z,1.60
2019-03-19T11:30:47.335Z,1.20
2019-03-19T11:33:14.051Z,1.47
2019-03-19T11:35:40.781Z,1.10
2019-03-19T11:38:07.789Z,1.10
2019-03-19T11:40:34.429Z,0.87
2019-03-19T11:43:01.102Z,1.20
2019-03-19T11:45:27.956Z,1.30
2019-03-19T11:47:55.201Z,1.10
2019-03-19T11:50:22.383Z,1.27
2019-03-19T11:52:49.397Z,1.33
2019-03-19T11:55:16.331Z,1.20
2019-03-19T11:57:43.018Z,1.50
2019-03-19T12:00:16.446Z,1.57
2019-03-19T12:02:43.086Z,1.23
2019-03-19T12:05:10.714Z,3.00
2019-03-19T12:07:37.532Z,2.00
2019-03-19T12:10:04.604Z,1.40
2019-03-19T12:12:31.260Z,1.80
2019-03-19T12:14:57.998Z,1.70
2019-03-19T12:17:24.874Z,1.87
2019-03-19T12:19:51.425Z,2.10
2019-03-19T12:22:18.253Z,1.90
2019-03-19T12:24:44.820Z,1.10
2019-03-19T12:27:11.501Z,1.30
2019-03-19T12:29:38.350Z,1.00
2019-03-19T12:32:04.984Z,1.10
2019-03-19T12:34:31.864Z,0.80
2019-03-19T12:36:58.493Z,0.93
2019-03-19T12:39:25.160Z,1.10
2019-03-19T12:41:51.793Z,1.00
2019-03-19T12:44:18.366Z,1.00
2019-03-19T12:46:45.000Z,1.07
2019-03-19T12:49:11.641Z,0.83
2019-03-19T12:51:38.261Z,1.23
2019-03-19T12:54:04.891Z,1.10
2019-03-19T12:56:31.594Z,0.93
2019-03-19T12:58:58.116Z,0.90
2019-03-19T13:01:24.989Z,0.97
2019-03-19T13:03:51.688Z,1.20
2019-03-19T13:06:18.246Z,0.90
2019-03-19T13:08:44.856Z,0.73
2019-03-19T13:11:11.620Z,0.83
2019-03-19T13:13:40.824Z,0.77
2019-03-19T13:16:06.836Z,0.70
2019-03-19T13:18:33.448Z,0.57
2019-03-19T13:21:00.054Z,0.90
2019-03-19T13:23:26.505Z,0.90
2019-03-19T13:25:53.254Z,0.70
2019-03-19T13:28:20.882Z,0.70
2019-03-19T13:30:47.474Z,0.67
2019-03-19T13:33:13.993Z,0.87
2019-03-19T13:35:40.647Z,0.50
2019-03-19T13:38:07.207Z,0.67
2019-03-19T13:40:33.861Z,0.80
2019-03-19T13:43:00.451Z,0.70
2019-03-19T13:45:27.082Z,0.90
2019-03-19T13:47:53.813Z,0.83
2019-03-19T13:50:20.786Z,0.63
2019-03-19T13:52:47.559Z,0.90
2019-03-19T13:55:14.573Z,0.93
2019-03-19T13:57:41.209Z,0.40
2019-03-19T14:00:08.741Z,0.40
2019-03-19T14:02:35.383Z,0.70
2019-03-19T14:05:01.927Z,0.43
2019-03-19T14:07:28.552Z,0.73
2019-03-19T14:09:55.092Z,0.50
2019-03-19T14:12:21.911Z,0.60
2019-03-19T14:14:48.425Z,0.43
2019-03-19T14:17:15.076Z,0.40
2019-03-19T14:19:41.608Z,0.60
2019-03-19T14:22:08.291Z,0.70
2019-03-19T14:24:34.896Z,0.40
2019-03-19T14:27:01.439Z,0.63
2019-03-19T14:29:28.068Z,0.53
2019-03-19T14:31:54.738Z,0.50
2019-03-19T14:34:21.436Z,0.60
2019-03-19T14:36:47.927Z,0.77
2019-03-19T14:39:14.598Z,0.50
2019-03-19T14:41:41.225Z,0.47
2019-03-19T14:44:07.903Z,0.70
2019-03-19T14:46:34.548Z,0.70
2019-03-19T14:49:01.186Z,0.60
2019-03-19T14:51:27.973Z,0.73
2019-03-19T14:53:54.503Z,0.60
2019-03-19T14:56:21.030Z,0.50
2019-03-19T14:58:47.555Z,0.87
2019-03-19T15:01:19.292Z,0.80
2019-03-19T15:03:42.609Z,0.40
2019-03-19T15:06:09.300Z,0.40
2019-03-19T15:08:35.938Z,0.60
2019-03-19T15:11:02.477Z,0.73
2019-03-19T15:13:29.217Z,0.63
2019-03-19T15:15:55.753Z,0.80
2019-03-19T15:18:22.495Z,0.50
2019-03-19T15:20:49.157Z,0.53
2019-03-19T15:23:15.669Z,0.60
2019-03-19T15:25:42.355Z,0.80
2019-03-19T15:28:08.906Z,0.50
2019-03-19T15:30:35.466Z,0.63
2019-03-19T15:33:02.044Z,0.40
2019-03-19T15:35:28.798Z,0.60
2019-03-19T15:37:55.518Z,0.73
2019-03-19T15:40:22.225Z,0.40
2019-03-19T15:42:48.798Z,0.43
2019-03-19T15:45:15.488Z,0.40
2019-03-19T15:47:42.344Z,0.50
2019-03-19T15:50:10.834Z,0.77
2019-03-19T15:52:37.478Z,0.57
2019-03-19T15:55:04.312Z,1.10
2019-03-19T15:57:31.312Z,0.73
2019-03-19T15:59:58.215Z,0.40
2019-03-19T16:02:25.010Z,0.60
2019-03-19T16:04:51.939Z,0.60
2019-03-19T16:07:19.028Z,0.50
2019-03-19T16:09:45.581Z,0.50
2019-03-19T16:12:12.303Z,0.90
2019-03-19T16:14:38.841Z,0.80
2019-03-19T16:17:05.672Z,0.90
2019-03-19T16:19:33.479Z,1.20
2019-03-19T16:22:00.100Z,1.00
2019-03-19T16:24:26.699Z,0.80
2019-03-19T16:26:53.235Z,0.90
2019-03-19T16:29:19.928Z,0.63
2019-03-19T16:31:50.904Z,0.90
2019-03-19T16:34:15.203Z,0.90
2019-03-19T16:36:41.763Z,1.00
2019-03-19T16:39:08.523Z,0.63
2019-03-19T16:41:35.156Z,0.70
2019-03-19T16:44:01.690Z,0.60
2019-03-19T16:46:28.238Z,1.10
2019-03-19T16:48:54.952Z,0.77
2019-03-19T16:51:21.613Z,1.03
2019-03-19T16:53:48.487Z,0.70
2019-03-19T16:56:15.215Z,0.50
2019-03-19T16:58:42.060Z,0.90
2019-03-19T17:01:08.618Z,0.70
2019-03-19T17:03:36.480Z,0.80
2019-03-19T17:06:03.266Z,0.77
2019-03-19T17:08:29.917Z,0.73
2019-03-19T17:10:56.741Z,0.60
2019-03-19T17:13:23.487Z,0.87
2019-03-19T17:15:50.166Z,0.63
2019-03-19T17:18:17.015Z,0.70
2019-03-19T17:20:43.733Z,0.90
2019-03-19T17:23:11.621Z,0.90
2019-03-19T17:25:38.455Z,1.00
2019-03-19T17:28:05.157Z,0.50
2019-03-19T17:30:32.066Z,1.00
2019-03-19T17:32:58.739Z,1.07
2019-03-19T17:35:31.501Z,0.90
2019-03-19T17:37:58.145Z,1.60
2019-03-19T17:40:24.834Z,1.17
2019-03-19T17:42:51.756Z,0.77
2019-03-19T17:45:18.675Z,0.63
2019-03-19T17:47:45.645Z,0.90
2019-03-19T17:50:14.492Z,1.43
2019-03-19T17:52:41.486Z,1.40
2019-03-19T17:55:09.370Z,1.73
2019-03-19T17:57:36.155Z,1.40
2019-03-19T18:00:04.171Z,1.00
2019-03-19T18:02:31.072Z,1.27
2019-03-19T18:04:57.881Z,1.57
2019-03-19T18:07:24.545Z,1.50
2019-03-19T18:09:51.299Z,2.50
2019-03-19T18:12:17.894Z,1.83
2019-03-19T18:14:44.453Z,1.33
2019-03-19T18:17:11.414Z,1.53
2019-03-19T18:19:38.082Z,1.50
2019-03-19T18:22:04.896Z,0.90
2019-03-19T18:24:31.622Z,1.20
2019-03-19T18:26:58.374Z,0.80
2019-03-19T18:29:26.318Z,0.80
2019-03-19T18:31:54.029Z,0.50
2019-03-19T18:34:20.699Z,0.50
2019-03-19T18:36:47.550Z,0.80
2019-03-19T18:39:14.315Z,0.77
2019-03-19T18:41:41.194Z,0.80
2019-03-19T18:44:08.004Z,0.90
2019-03-19T18:46:34.723Z,1.00
2019-03-19T18:49:01.444Z,1.30
2019-03-19T18:51:28.221Z,1.70
2019-03-19T18:53:55.023Z,1.30
2019-03-19T18:56:21.725Z,1.80
2019-03-19T18:58:51.241Z,2.20
2019-03-19T19:01:18.035Z,2.10
2019-03-19T19:03:44.712Z,2.50
2019-03-19T19:06:11.293Z,2.63
2019-03-19T19:08:37.961Z,2.10
2019-03-19T19:11:05.040Z,2.80
2019-03-19T19:13:31.814Z,1.93
2019-03-19T19:15:58.587Z,1.40
2019-03-19T19:18:25.465Z,2.27
2019-03-19T19:20:52.431Z,2.73
2019-03-19T19:23:19.272Z,1.67
2019-03-19T19:25:46.241Z,1.40
2019-03-19T19:28:13.921Z,1.70
2019-03-19T19:30:40.544Z,1.83
2019-03-19T19:33:07.373Z,1.33
2019-03-19T19:35:35.138Z,2.00
2019-03-19T19:38:03.339Z,1.70
2019-03-19T19:40:30.451Z,1.97
2019-03-19T19:42:57.181Z,2.17
2019-03-19T19:45:23.862Z,2.40
2019-03-19T19:47:50.463Z,1.80
2019-03-19T19:50:17.167Z,2.00
2019-03-19T19:52:43.980Z,2.30
2019-03-19T19:55:10.835Z,1.83
2019-03-19T19:57:37.611Z,1.67
2019-03-19T20:00:04.913Z,1.87
2019-03-19T20:02:31.543Z,1.60
2019-03-19T20:05:02.921Z,1.23
2019-03-19T20:07:27.135Z,1.40
2019-03-19T20:09:53.688Z,1.57
2019-03-19T20:12:20.392Z,1.13
2019-03-19T20:14:47.240Z,1.27
2019-03-19T20:17:13.994Z,1.53
2019-03-19T20:19:40.558Z,1.70
2019-03-19T20:22:07.158Z,1.37
2019-03-19T20:24:33.906Z,1.07
2019-03-19T20:27:00.568Z,1.47
2019-03-19T20:29:27.414Z,1.60
2019-03-19T20:31:54.039Z,1.70
2019-03-19T20:34:20.604Z,1.67
2019-03-19T20:36:48.314Z,1.67
2019-03-19T20:39:16.108Z,2.33
2019-03-19T20:41:42.885Z,2.00
2019-03-19T20:44:09.769Z,2.03
2019-03-19T20:46:36.571Z,1.60
2019-03-19T20:49:04.439Z,1.93
2019-03-19T20:51:31.398Z,2.20
2019-03-19T20:53:58.184Z,1.63
2019-03-19T20:56:25.067Z,1.97
2019-03-19T20:58:51.726Z,1.83
2019-03-19T21:01:18.674Z,2.10
2019-03-19T21:03:45.461Z,1.87
2019-03-19T21:06:12.335Z,1.70
2019-03-19T21:08:39.245Z,1.77
2019-03-19T21:11:06.016Z,1.77
2019-03-19T21:13:32.815Z,2.10
2019-03-19T21:15:59.495Z,1.90
2019-03-19T21:18:27.368Z,1.70
2019-03-19T21:20:54.136Z,1.53
2019-03-19T21:23:20.873Z,1.50
2019-03-19T21:25:47.583Z,1.90
2019-03-19T21:28:14.732Z,1.23
2019-03-19T21:30:41.627Z,1.97
2019-03-19T21:33:08.480Z,1.60
2019-03-19T21:35:36.182Z,1.90
2019-03-19T21:38:03.104Z,2.20
2019-03-19T21:40:29.951Z,2.60
2019-03-19T21:42:56.763Z,1.80
2019-03-19T21:45:23.572Z,2.23
2019-03-19T21:47:50.385Z,1.77
2019-03-19T21:50:17.223Z,2.23
2019-03-19T21:52:44.365Z,2.20
2019-03-19T21:55:14.041Z,2.37
2019-03-19T21:57:42.798Z,2.17
2019-03-19T22:00:12.102Z,2.90
2019-03-19T22:02:38.960Z,2.43
2019-03-19T22:05:05.923Z,2.20
2019-03-19T22:07:32.728Z,2.23
2019-03-19T22:09:59.468Z,2.70
2019-03-19T22:12:26.340Z,2.40
2019-03-19T22:14:53.063Z,2.43
2019-03-19T22:17:19.812Z,2.10
2019-03-19T22:19:46.823Z,2.20
2019-03-19T22:22:13.512Z,1.80
2019-03-19T22:24:40.283Z,1.93
2019-03-19T22:27:07.092Z,2.57
2019-03-19T22:29:33.756Z,1.70
2019-03-19T22:32:00.316Z,1.70
2019-03-19T22:34:27.188Z,2.00
2019-03-19T22:36:53.949Z,2.30
2019-03-19T22:39:21.719Z,2.37
2019-03-19T22:41:48.415Z,2.17
2019-03-19T22:44:15.135Z,2.30
2019-03-19T22:46:43.845Z,2.40
2019-03-19T22:49:10.608Z,2.37
2019-03-19T22:51:37.544Z,1.93
2019-03-19T22:54:04.262Z,1.80
2019-03-19T22:56:31.013Z,1.90
2019-03-19T22:58:57.534Z,2.00
2019-03-19T23:01:24.222Z,1.80
2019-03-19T23:03:50.841Z,2.23
2019-03-19T23:06:17.385Z,1.83
2019-03-19T23:08:43.942Z,2.23
2019-03-19T23:11:10.613Z,1.70
2019-03-19T23:13:37.299Z,1.70
2019-03-19T23:16:04.293Z,1.77
2019-03-19T23:18:31.004Z,1.83
2019-03-19T23:20:57.658Z,1.83
2019-03-19T23:23:24.292Z,2.07
2019-03-19T23:26:12.407Z,2.13
2019-03-19T23:28:39.062Z,2.40
2019-03-19T23:31:07.275Z,1.90
2019-03-19T23:33:34.027Z,2.07
2019-03-19T23:36:00.787Z,1.50
2019-03-19T23:38:27.425Z,1.80
2019-03-19T23:40:54.077Z,1.57
2019-03-19T23:43:20.802Z,2.40
2019-03-19T23:45:47.372Z,1.83
2019-03-19T23:48:14.053Z,2.13
2019-03-19T23:50:40.683Z,2.37
2019-03-19T23:53:07.461Z,2.30
2019-03-19T23:55:34.112Z,2.30
2019-03-19T23:58:00.737Z,1.83
